<?xml version="1.0" encoding="UTF-8" standalone="no" ?>
<gpx xmlns="http://www.topografix.com/GPX/1/1" xmlns:xsi="http://www.w3.org/2001/XMLSchema-instance" xsi:schemaLocation="http://www.topografix.com/GPX/1/1 http://www.topografix.com/GPX/1/1/gpx.xsd" version="1.1" creator="VisuGPX - https://www.visugpx.com">
  <metadata>
    <name>Thuin la petite Suisse sur TraceDeTrail.fr</name>
  </metadata>
  <trk>
    <name><![CDATA[Thuin la petite Suisse sur TraceDeTrail.fr]]></name>
    <trkseg>
      <trkpt lat="50.3378" lon="4.28592">
        <ele>116</ele>
        <time>2000-01-01T00:56:59.000Z</time>
      </trkpt>
      <trkpt lat="50.33813" lon="4.28522">
        <ele>115</ele>
        <time>2000-01-01T00:57:39.000Z</time>
      </trkpt>
      <trkpt lat="50.33884" lon="4.28422">
        <ele>119</ele>
        <time>2000-01-01T00:58:19.000Z</time>
      </trkpt>
      <trkpt lat="50.3389" lon="4.28456">
        <ele>119</ele>
        <time>2000-01-01T00:58:59.000Z</time>
      </trkpt>
      <trkpt lat="50.33859" lon="4.28543">
        <ele>137.7</ele>
        <time>2000-01-01T00:59:39.000Z</time>
      </trkpt>
      <trkpt lat="50.33861" lon="4.28616">
        <ele>143.9</ele>
        <time>2000-01-01T01:00:19.000Z</time>
      </trkpt>
      <trkpt lat="50.33826" lon="4.28701">
        <ele>140.5</ele>
        <time>2000-01-01T01:00:59.000Z</time>
      </trkpt>
      <trkpt lat="50.33799" lon="4.28774">
        <ele>135.6</ele>
        <time>2000-01-01T01:01:39.000Z</time>
      </trkpt>
      <trkpt lat="50.33804" lon="4.28919">
        <ele>133</ele>
        <time>2000-01-01T01:02:19.000Z</time>
      </trkpt>
      <trkpt lat="50.3383" lon="4.29011">
        <ele>154.7</ele>
        <time>2000-01-01T01:02:59.000Z</time>
      </trkpt>
      <trkpt lat="50.33782" lon="4.29024">
        <ele>130</ele>
        <time>2000-01-01T01:03:39.000Z</time>
      </trkpt>
      <trkpt lat="50.33678" lon="4.29006">
        <ele>138.5</ele>
        <time>2000-01-01T01:04:19.000Z</time>
      </trkpt>
      <trkpt lat="50.33621" lon="4.28985">
        <ele>120</ele>
        <time>2000-01-01T01:04:59.000Z</time>
      </trkpt>
      <trkpt lat="50.33589" lon="4.29018">
        <ele>142.4</ele>
        <time>2000-01-01T01:05:39.000Z</time>
      </trkpt>
      <trkpt lat="50.33561" lon="4.29026">
        <ele>130</ele>
        <time>2000-01-01T01:06:19.000Z</time>
      </trkpt>
      <trkpt lat="50.33502" lon="4.29016">
        <ele>138</ele>
        <time>2000-01-01T01:06:59.000Z</time>
      </trkpt>
      <trkpt lat="50.33452" lon="4.28994">
        <ele>159.4</ele>
        <time>2000-01-01T01:07:39.000Z</time>
      </trkpt>
      <trkpt lat="50.33366" lon="4.28949">
        <ele>156</ele>
        <time>2000-01-01T01:08:19.000Z</time>
      </trkpt>
      <trkpt lat="50.33289" lon="4.28912">
        <ele>158.8</ele>
        <time>2000-01-01T01:09:09.000Z</time>
      </trkpt>
      <trkpt lat="50.33254" lon="4.28879">
        <ele>154.4</ele>
        <time>2000-01-01T01:09:49.000Z</time>
      </trkpt>
      <trkpt lat="50.33238" lon="4.28851">
        <ele>143</ele>
        <time>2000-01-01T01:10:29.000Z</time>
      </trkpt>
      <trkpt lat="50.33268" lon="4.28832">
        <ele>147.8</ele>
        <time>2000-01-01T01:11:09.000Z</time>
      </trkpt>
      <trkpt lat="50.33288" lon="4.28797">
        <ele>143.8</ele>
        <time>2000-01-01T01:11:49.000Z</time>
      </trkpt>
      <trkpt lat="50.33238" lon="4.28821">
        <ele>139</ele>
        <time>2000-01-01T01:12:29.000Z</time>
      </trkpt>
      <trkpt lat="50.3319" lon="4.28872">
        <ele>146.8</ele>
        <time>2000-01-01T01:13:09.000Z</time>
      </trkpt>
      <trkpt lat="50.33136" lon="4.28949">
        <ele>136</ele>
        <time>2000-01-01T01:13:49.000Z</time>
      </trkpt>
      <trkpt lat="50.33148" lon="4.28994">
        <ele>153.9</ele>
        <time>2000-01-01T01:14:29.000Z</time>
      </trkpt>
      <trkpt lat="50.33153" lon="4.29025">
        <ele>151</ele>
        <time>2000-01-01T01:15:09.000Z</time>
      </trkpt>
      <trkpt lat="50.3312" lon="4.29002">
        <ele>147.9</ele>
        <time>2000-01-01T01:15:49.000Z</time>
      </trkpt>
      <trkpt lat="50.33095" lon="4.29046">
        <ele>137</ele>
        <time>2000-01-01T01:16:29.000Z</time>
      </trkpt>
      <trkpt lat="50.33106" lon="4.29091">
        <ele>150.7</ele>
        <time>2000-01-01T01:17:09.000Z</time>
      </trkpt>
      <trkpt lat="50.33125" lon="4.29125">
        <ele>151</ele>
        <time>2000-01-01T01:17:49.000Z</time>
      </trkpt>
      <trkpt lat="50.33112" lon="4.29171">
        <ele>156.6</ele>
        <time>2000-01-01T01:18:29.000Z</time>
      </trkpt>
      <trkpt lat="50.33077" lon="4.29189">
        <ele>148</ele>
        <time>2000-01-01T01:19:09.000Z</time>
      </trkpt>
      <trkpt lat="50.33052" lon="4.29244">
        <ele>142</ele>
        <time>2000-01-01T01:19:49.000Z</time>
      </trkpt>
      <trkpt lat="50.33107" lon="4.29269">
        <ele>144.6</ele>
        <time>2000-01-01T01:20:29.000Z</time>
      </trkpt>
      <trkpt lat="50.33157" lon="4.29226">
        <ele>152.5</ele>
        <time>2000-01-01T01:21:09.000Z</time>
      </trkpt>
      <trkpt lat="50.33195" lon="4.29219">
        <ele>157.4</ele>
        <time>2000-01-01T01:21:49.000Z</time>
      </trkpt>
      <trkpt lat="50.3324" lon="4.29244">
        <ele>159.4</ele>
        <time>2000-01-01T01:22:29.000Z</time>
      </trkpt>
      <trkpt lat="50.33279" lon="4.29288">
        <ele>167</ele>
        <time>2000-01-01T01:23:09.000Z</time>
      </trkpt>
      <trkpt lat="50.33321" lon="4.29323">
        <ele>171</ele>
        <time>2000-01-01T01:23:49.000Z</time>
      </trkpt>
      <trkpt lat="50.33359" lon="4.29394">
        <ele>176</ele>
        <time>2000-01-01T01:24:29.000Z</time>
      </trkpt>
      <trkpt lat="50.3336" lon="4.29469">
        <ele>169.7</ele>
        <time>2000-01-01T01:25:09.000Z</time>
      </trkpt>
      <trkpt lat="50.33374" lon="4.29562">
        <ele>170.6</ele>
        <time>2000-01-01T01:25:49.000Z</time>
      </trkpt>
      <trkpt lat="50.33389" lon="4.29622">
        <ele>179</ele>
        <time>2000-01-01T01:26:29.000Z</time>
      </trkpt>
      <trkpt lat="50.3342" lon="4.2963">
        <ele>178.2</ele>
        <time>2000-01-01T01:27:09.000Z</time>
      </trkpt>
      <trkpt lat="50.33447" lon="4.29598">
        <ele>176.5</ele>
        <time>2000-01-01T01:27:49.000Z</time>
      </trkpt>
      <trkpt lat="50.33458" lon="4.29545">
        <ele>168</ele>
        <time>2000-01-01T01:28:29.000Z</time>
      </trkpt>
      <trkpt lat="50.33469" lon="4.29487">
        <ele>157</ele>
        <time>2000-01-01T01:29:09.000Z</time>
      </trkpt>
      <trkpt lat="50.33485" lon="4.29408">
        <ele>169.2</ele>
        <time>2000-01-01T01:29:49.000Z</time>
      </trkpt>
      <trkpt lat="50.33502" lon="4.29308">
        <ele>165.6</ele>
        <time>2000-01-01T01:30:29.000Z</time>
      </trkpt>
      <trkpt lat="50.33541" lon="4.29284">
        <ele>165</ele>
        <time>2000-01-01T01:31:09.000Z</time>
      </trkpt>
      <trkpt lat="50.33533" lon="4.29553">
        <ele>164</ele>
        <time>2000-01-01T01:32:19.000Z</time>
      </trkpt>
      <trkpt lat="50.33562" lon="4.29534">
        <ele>173.8</ele>
        <time>2000-01-01T01:32:59.000Z</time>
      </trkpt>
      <trkpt lat="50.33571" lon="4.29484">
        <ele>172.8</ele>
        <time>2000-01-01T01:33:39.000Z</time>
      </trkpt>
      <trkpt lat="50.33587" lon="4.29416">
        <ele>171.2</ele>
        <time>2000-01-01T01:34:19.000Z</time>
      </trkpt>
      <trkpt lat="50.33609" lon="4.29328">
        <ele>160</ele>
        <time>2000-01-01T01:34:59.000Z</time>
      </trkpt>
      <trkpt lat="50.33635" lon="4.29247">
        <ele>167.1</ele>
        <time>2000-01-01T01:35:39.000Z</time>
      </trkpt>
      <trkpt lat="50.33602" lon="4.2923">
        <ele>156</ele>
        <time>2000-01-01T01:36:19.000Z</time>
      </trkpt>
      <trkpt lat="50.33558" lon="4.29281">
        <ele>164.4</ele>
        <time>2000-01-01T01:36:59.000Z</time>
      </trkpt>
      <trkpt lat="50.33558" lon="4.29203">
        <ele>150</ele>
        <time>2000-01-01T01:37:39.000Z</time>
      </trkpt>
      <trkpt lat="50.33617" lon="4.2906">
        <ele>146.8</ele>
        <time>2000-01-01T01:38:19.000Z</time>
      </trkpt>
      <trkpt lat="50.33617" lon="4.28989">
        <ele>138.4</ele>
        <time>2000-01-01T01:38:59.000Z</time>
      </trkpt>
      <trkpt lat="50.33655" lon="4.29009">
        <ele>139.1</ele>
        <time>2000-01-01T01:39:39.000Z</time>
      </trkpt>
      <trkpt lat="50.33674" lon="4.29053">
        <ele>146.8</ele>
        <time>2000-01-01T01:40:19.000Z</time>
      </trkpt>
      <trkpt lat="50.33672" lon="4.2912">
        <ele>159.2</ele>
        <time>2000-01-01T01:40:59.000Z</time>
      </trkpt>
      <trkpt lat="50.33693" lon="4.29165">
        <ele>168.6</ele>
        <time>2000-01-01T01:41:39.000Z</time>
      </trkpt>
      <trkpt lat="50.33728" lon="4.29109">
        <ele>159.1</ele>
        <time>2000-01-01T01:42:19.000Z</time>
      </trkpt>
      <trkpt lat="50.33766" lon="4.29111">
        <ele>161.4</ele>
        <time>2000-01-01T01:42:59.000Z</time>
      </trkpt>
      <trkpt lat="50.33802" lon="4.29111">
        <ele>163.9</ele>
        <time>2000-01-01T01:43:39.000Z</time>
      </trkpt>
      <trkpt lat="50.33809" lon="4.29162">
        <ele>171.1</ele>
        <time>2000-01-01T01:44:19.000Z</time>
      </trkpt>
      <trkpt lat="50.33834" lon="4.29185">
        <ele>172.3</ele>
        <time>2000-01-01T01:44:59.000Z</time>
      </trkpt>
      <trkpt lat="50.33869" lon="4.2918">
        <ele>173.9</ele>
        <time>2000-01-01T01:45:39.000Z</time>
      </trkpt>
      <trkpt lat="50.33928" lon="4.2921">
        <ele>178</ele>
        <time>2000-01-01T01:46:19.000Z</time>
      </trkpt>
      <trkpt lat="50.33951" lon="4.29241">
        <ele>176</ele>
        <time>2000-01-01T01:46:59.000Z</time>
      </trkpt>
      <trkpt lat="50.3402" lon="4.29235">
        <ele>172.1</ele>
        <time>2000-01-01T01:47:39.000Z</time>
      </trkpt>
      <trkpt lat="50.34045" lon="4.29273">
        <ele>169.5</ele>
        <time>2000-01-01T01:48:19.000Z</time>
      </trkpt>
      <trkpt lat="50.34082" lon="4.29296">
        <ele>164.9</ele>
        <time>2000-01-01T01:48:59.000Z</time>
      </trkpt>
      <trkpt lat="50.34113" lon="4.29256">
        <ele>148.6</ele>
        <time>2000-01-01T01:49:39.000Z</time>
      </trkpt>
      <trkpt lat="50.34094" lon="4.29169">
        <ele>141</ele>
        <time>2000-01-01T01:50:19.000Z</time>
      </trkpt>
      <trkpt lat="50.34088" lon="4.291">
        <ele>132</ele>
        <time>2000-01-01T01:50:59.000Z</time>
      </trkpt>
      <trkpt lat="50.34078" lon="4.29034">
        <ele>127</ele>
        <time>2000-01-01T01:51:39.000Z</time>
      </trkpt>
      <trkpt lat="50.34067" lon="4.28967">
        <ele>133</ele>
        <time>2000-01-01T01:52:19.000Z</time>
      </trkpt>
      <trkpt lat="50.34037" lon="4.28917">
        <ele>142</ele>
        <time>2000-01-01T01:52:59.000Z</time>
      </trkpt>
      <trkpt lat="50.34011" lon="4.28847">
        <ele>150</ele>
        <time>2000-01-01T01:53:39.000Z</time>
      </trkpt>
      <trkpt lat="50.33992" lon="4.28798">
        <ele>152</ele>
        <time>2000-01-01T01:54:19.000Z</time>
      </trkpt>
      <trkpt lat="50.33988" lon="4.28733">
        <ele>152</ele>
        <time>2000-01-01T01:54:59.000Z</time>
      </trkpt>
      <trkpt lat="50.34001" lon="4.28639">
        <ele>151</ele>
        <time>2000-01-01T01:55:49.000Z</time>
      </trkpt>
      <trkpt lat="50.34005" lon="4.28556">
        <ele>156</ele>
        <time>2000-01-01T01:56:29.000Z</time>
      </trkpt>
      <trkpt lat="50.34021" lon="4.28579">
        <ele>140</ele>
        <time>2000-01-01T01:57:09.000Z</time>
      </trkpt>
      <trkpt lat="50.34025" lon="4.28649">
        <ele>139</ele>
        <time>2000-01-01T01:57:49.000Z</time>
      </trkpt>
      <trkpt lat="50.34053" lon="4.28642">
        <ele>131.8</ele>
        <time>2000-01-01T01:58:29.000Z</time>
      </trkpt>
      <trkpt lat="50.34074" lon="4.28556">
        <ele>124</ele>
        <time>2000-01-01T01:59:09.000Z</time>
      </trkpt>
      <trkpt lat="50.34126" lon="4.28542">
        <ele>115</ele>
        <time>2000-01-01T01:59:49.000Z</time>
      </trkpt>
      <trkpt lat="50.3414" lon="4.28628">
        <ele>118.4</ele>
        <time>2000-01-01T02:00:29.000Z</time>
      </trkpt>
      <trkpt lat="50.34175" lon="4.28688">
        <ele>112</ele>
        <time>2000-01-01T02:01:09.000Z</time>
      </trkpt>
      <trkpt lat="50.34219" lon="4.28713">
        <ele>112</ele>
        <time>2000-01-01T02:01:49.000Z</time>
      </trkpt>
      <trkpt lat="50.34247" lon="4.28786">
        <ele>123.2</ele>
        <time>2000-01-01T02:02:29.000Z</time>
      </trkpt>
      <trkpt lat="50.34266" lon="4.28777">
        <ele>118</ele>
        <time>2000-01-01T02:03:09.000Z</time>
      </trkpt>
      <trkpt lat="50.34315" lon="4.28792">
        <ele>135</ele>
        <time>2000-01-01T02:03:49.000Z</time>
      </trkpt>
      <trkpt lat="50.34363" lon="4.28793">
        <ele>140</ele>
        <time>2000-01-01T02:04:29.000Z</time>
      </trkpt>
      <trkpt lat="50.34347" lon="4.28727">
        <ele>140</ele>
        <time>2000-01-01T02:05:09.000Z</time>
      </trkpt>
      <trkpt lat="50.34321" lon="4.28656">
        <ele>132.1</ele>
        <time>2000-01-01T02:05:49.000Z</time>
      </trkpt>
      <trkpt lat="50.34384" lon="4.28716">
        <ele>138</ele>
        <time>2000-01-01T02:06:29.000Z</time>
      </trkpt>
      <trkpt lat="50.3443" lon="4.28679">
        <ele>150.7</ele>
        <time>2000-01-01T02:07:09.000Z</time>
      </trkpt>
      <trkpt lat="50.34471" lon="4.28673">
        <ele>157.2</ele>
        <time>2000-01-01T02:07:49.000Z</time>
      </trkpt>
      <trkpt lat="50.34477" lon="4.28738">
        <ele>155.5</ele>
        <time>2000-01-01T02:08:29.000Z</time>
      </trkpt>
      <trkpt lat="50.34492" lon="4.2882">
        <ele>153.7</ele>
        <time>2000-01-01T02:09:09.000Z</time>
      </trkpt>
      <trkpt lat="50.34528" lon="4.2883">
        <ele>159.5</ele>
        <time>2000-01-01T02:09:49.000Z</time>
      </trkpt>
      <trkpt lat="50.3459" lon="4.28802">
        <ele>162</ele>
        <time>2000-01-01T02:10:29.000Z</time>
      </trkpt>
      <trkpt lat="50.34634" lon="4.28782">
        <ele>169</ele>
        <time>2000-01-01T02:11:09.000Z</time>
      </trkpt>
      <trkpt lat="50.34686" lon="4.2876">
        <ele>172</ele>
        <time>2000-01-01T02:11:49.000Z</time>
      </trkpt>
      <trkpt lat="50.34667" lon="4.28698">
        <ele>173</ele>
        <time>2000-01-01T02:12:29.000Z</time>
      </trkpt>
      <trkpt lat="50.34647" lon="4.28637">
        <ele>167</ele>
        <time>2000-01-01T02:13:09.000Z</time>
      </trkpt>
      <trkpt lat="50.3464" lon="4.28567">
        <ele>171.2</ele>
        <time>2000-01-01T02:13:49.000Z</time>
      </trkpt>
      <trkpt lat="50.34688" lon="4.28538">
        <ele>163</ele>
        <time>2000-01-01T02:14:29.000Z</time>
      </trkpt>
      <trkpt lat="50.34676" lon="4.28474">
        <ele>164</ele>
        <time>2000-01-01T02:15:09.000Z</time>
      </trkpt>
      <trkpt lat="50.34654" lon="4.28395">
        <ele>159</ele>
        <time>2000-01-01T02:15:49.000Z</time>
      </trkpt>
      <trkpt lat="50.34634" lon="4.28318">
        <ele>162.5</ele>
        <time>2000-01-01T02:16:29.000Z</time>
      </trkpt>
      <trkpt lat="50.34625" lon="4.28239">
        <ele>153.9</ele>
        <time>2000-01-01T02:17:09.000Z</time>
      </trkpt>
      <trkpt lat="50.34676" lon="4.28179">
        <ele>148</ele>
        <time>2000-01-01T02:17:49.000Z</time>
      </trkpt>
      <trkpt lat="50.34723" lon="4.28137">
        <ele>150.6</ele>
        <time>2000-01-01T02:18:29.000Z</time>
      </trkpt>
      <trkpt lat="50.34802" lon="4.28096">
        <ele>147</ele>
        <time>2000-01-01T02:19:19.000Z</time>
      </trkpt>
      <trkpt lat="50.34844" lon="4.28083">
        <ele>148</ele>
        <time>2000-01-01T02:19:59.000Z</time>
      </trkpt>
      <trkpt lat="50.34894" lon="4.28064">
        <ele>152</ele>
        <time>2000-01-01T02:20:39.000Z</time>
      </trkpt>
      <trkpt lat="50.34887" lon="4.27989">
        <ele>148</ele>
        <time>2000-01-01T02:21:19.000Z</time>
      </trkpt>
      <trkpt lat="50.34868" lon="4.27932">
        <ele>149</ele>
        <time>2000-01-01T02:21:59.000Z</time>
      </trkpt>
      <trkpt lat="50.34876" lon="4.27877">
        <ele>152</ele>
        <time>2000-01-01T02:22:39.000Z</time>
      </trkpt>
      <trkpt lat="50.34904" lon="4.27804">
        <ele>157</ele>
        <time>2000-01-01T02:23:19.000Z</time>
      </trkpt>
      <trkpt lat="50.34905" lon="4.27753">
        <ele>157</ele>
        <time>2000-01-01T02:23:59.000Z</time>
      </trkpt>
      <trkpt lat="50.34863" lon="4.2785">
        <ele>146.1</ele>
        <time>2000-01-01T02:24:39.000Z</time>
      </trkpt>
      <trkpt lat="50.34835" lon="4.2791">
        <ele>141.1</ele>
        <time>2000-01-01T02:25:19.000Z</time>
      </trkpt>
      <trkpt lat="50.34793" lon="4.27942">
        <ele>115</ele>
        <time>2000-01-01T02:25:59.000Z</time>
      </trkpt>
      <trkpt lat="50.34751" lon="4.2797">
        <ele>115</ele>
        <time>2000-01-01T02:26:39.000Z</time>
      </trkpt>
      <trkpt lat="50.34766" lon="4.27909">
        <ele>105</ele>
        <time>2000-01-01T02:27:19.000Z</time>
      </trkpt>
      <trkpt lat="50.34788" lon="4.27837">
        <ele>128.3</ele>
        <time>2000-01-01T02:27:59.000Z</time>
      </trkpt>
      <trkpt lat="50.34817" lon="4.27765">
        <ele>109</ele>
        <time>2000-01-01T02:28:39.000Z</time>
      </trkpt>
      <trkpt lat="50.34832" lon="4.27696">
        <ele>111</ele>
        <time>2000-01-01T02:29:19.000Z</time>
      </trkpt>
      <trkpt lat="50.34833" lon="4.27587">
        <ele>132.8</ele>
        <time>2000-01-01T02:29:59.000Z</time>
      </trkpt>
      <trkpt lat="50.34821" lon="4.27517">
        <ele>133.2</ele>
        <time>2000-01-01T02:30:39.000Z</time>
      </trkpt>
      <trkpt lat="50.34805" lon="4.27452">
        <ele>133.9</ele>
        <time>2000-01-01T02:31:19.000Z</time>
      </trkpt>
      <trkpt lat="50.34771" lon="4.27389">
        <ele>130.5</ele>
        <time>2000-01-01T02:31:59.000Z</time>
      </trkpt>
      <trkpt lat="50.34733" lon="4.27329">
        <ele>126</ele>
        <time>2000-01-01T02:32:39.000Z</time>
      </trkpt>
      <trkpt lat="50.34681" lon="4.27239">
        <ele>130</ele>
        <time>2000-01-01T02:33:19.000Z</time>
      </trkpt>
      <trkpt lat="50.34656" lon="4.27185">
        <ele>132</ele>
        <time>2000-01-01T02:33:59.000Z</time>
      </trkpt>
      <trkpt lat="50.34652" lon="4.27133">
        <ele>133</ele>
        <time>2000-01-01T02:34:39.000Z</time>
      </trkpt>
      <trkpt lat="50.34671" lon="4.27074">
        <ele>142</ele>
        <time>2000-01-01T02:35:19.000Z</time>
      </trkpt>
      <trkpt lat="50.34683" lon="4.27002">
        <ele>151</ele>
        <time>2000-01-01T02:35:59.000Z</time>
      </trkpt>
      <trkpt lat="50.34687" lon="4.26923">
        <ele>148</ele>
        <time>2000-01-01T02:36:39.000Z</time>
      </trkpt>
      <trkpt lat="50.34708" lon="4.26855">
        <ele>151</ele>
        <time>2000-01-01T02:37:19.000Z</time>
      </trkpt>
      <trkpt lat="50.34679" lon="4.26793">
        <ele>155.3</ele>
        <time>2000-01-01T02:37:59.000Z</time>
      </trkpt>
      <trkpt lat="50.34684" lon="4.26714">
        <ele>154.5</ele>
        <time>2000-01-01T02:38:39.000Z</time>
      </trkpt>
      <trkpt lat="50.34685" lon="4.26626">
        <ele>147</ele>
        <time>2000-01-01T02:39:19.000Z</time>
      </trkpt>
      <trkpt lat="50.34726" lon="4.26563">
        <ele>148.2</ele>
        <time>2000-01-01T02:39:59.000Z</time>
      </trkpt>
      <trkpt lat="50.34733" lon="4.265">
        <ele>144.6</ele>
        <time>2000-01-01T02:40:39.000Z</time>
      </trkpt>
      <trkpt lat="50.34721" lon="4.26464">
        <ele>131</ele>
        <time>2000-01-01T02:41:19.000Z</time>
      </trkpt>
      <trkpt lat="50.34672" lon="4.26531">
        <ele>142</ele>
        <time>2000-01-01T02:42:29.000Z</time>
      </trkpt>
      <trkpt lat="50.34653" lon="4.2661">
        <ele>143</ele>
        <time>2000-01-01T02:43:09.000Z</time>
      </trkpt>
      <trkpt lat="50.34621" lon="4.26652">
        <ele>140</ele>
        <time>2000-01-01T02:43:49.000Z</time>
      </trkpt>
      <trkpt lat="50.34627" lon="4.26584">
        <ele>132</ele>
        <time>2000-01-01T02:44:29.000Z</time>
      </trkpt>
      <trkpt lat="50.34636" lon="4.26511">
        <ele>127</ele>
        <time>2000-01-01T02:45:09.000Z</time>
      </trkpt>
      <trkpt lat="50.34606" lon="4.26489">
        <ele>122</ele>
        <time>2000-01-01T02:45:49.000Z</time>
      </trkpt>
      <trkpt lat="50.34571" lon="4.26532">
        <ele>118</ele>
        <time>2000-01-01T02:46:29.000Z</time>
      </trkpt>
      <trkpt lat="50.34532" lon="4.26509">
        <ele>116</ele>
        <time>2000-01-01T02:47:09.000Z</time>
      </trkpt>
      <trkpt lat="50.34447" lon="4.2646">
        <ele>113</ele>
        <time>2000-01-01T02:47:49.000Z</time>
      </trkpt>
      <trkpt lat="50.34394" lon="4.26509">
        <ele>111</ele>
        <time>2000-01-01T02:48:29.000Z</time>
      </trkpt>
      <trkpt lat="50.34366" lon="4.26606">
        <ele>108</ele>
        <time>2000-01-01T02:49:09.000Z</time>
      </trkpt>
      <trkpt lat="50.34321" lon="4.26715">
        <ele>103</ele>
        <time>2000-01-01T02:49:49.000Z</time>
      </trkpt>
      <trkpt lat="50.3428" lon="4.26761">
        <ele>105</ele>
        <time>2000-01-01T02:50:29.000Z</time>
      </trkpt>
      <trkpt lat="50.34225" lon="4.26823">
        <ele>117.3</ele>
        <time>2000-01-01T02:51:09.000Z</time>
      </trkpt>
      <trkpt lat="50.3419" lon="4.26883">
        <ele>106</ele>
        <time>2000-01-01T02:51:49.000Z</time>
      </trkpt>
      <trkpt lat="50.34129" lon="4.27044">
        <ele>124</ele>
        <time>2000-01-01T02:52:29.000Z</time>
      </trkpt>
      <trkpt lat="50.34106" lon="4.27103">
        <ele>129</ele>
        <time>2000-01-01T02:53:09.000Z</time>
      </trkpt>
      <trkpt lat="50.341" lon="4.27208">
        <ele>159</ele>
        <time>2000-01-01T02:53:49.000Z</time>
      </trkpt>
      <trkpt lat="50.34119" lon="4.27338">
        <ele>159.6</ele>
        <time>2000-01-01T02:54:29.000Z</time>
      </trkpt>
      <trkpt lat="50.34115" lon="4.27389">
        <ele>160.7</ele>
        <time>2000-01-01T02:55:09.000Z</time>
      </trkpt>
      <trkpt lat="50.34009" lon="4.2737">
        <ele>163</ele>
        <time>2000-01-01T02:55:49.000Z</time>
      </trkpt>
      <trkpt lat="50.34002" lon="4.27408">
        <ele>161</ele>
        <time>2000-01-01T02:56:29.000Z</time>
      </trkpt>
      <trkpt lat="50.33997" lon="4.27506">
        <ele>161.9</ele>
        <time>2000-01-01T02:57:09.000Z</time>
      </trkpt>
      <trkpt lat="50.33971" lon="4.27607">
        <ele>157</ele>
        <time>2000-01-01T02:57:49.000Z</time>
      </trkpt>
      <trkpt lat="50.33947" lon="4.27797">
        <ele>144.3</ele>
        <time>2000-01-01T02:58:29.000Z</time>
      </trkpt>
      <trkpt lat="50.33975" lon="4.27892">
        <ele>131.9</ele>
        <time>2000-01-01T02:59:09.000Z</time>
      </trkpt>
      <trkpt lat="50.3401" lon="4.27967">
        <ele>122.6</ele>
        <time>2000-01-01T02:59:49.000Z</time>
      </trkpt>
      <trkpt lat="50.33955" lon="4.28011">
        <ele>118</ele>
        <time>2000-01-01T03:00:29.000Z</time>
      </trkpt>
      <trkpt lat="50.33917" lon="4.28041">
        <ele>119</ele>
        <time>2000-01-01T03:01:09.000Z</time>
      </trkpt>
      <trkpt lat="50.33795" lon="4.28195">
        <ele>125</ele>
        <time>2000-01-01T03:01:49.000Z</time>
      </trkpt>
      <trkpt lat="50.3369" lon="4.28311">
        <ele>131</ele>
        <time>2000-01-01T03:02:29.000Z</time>
      </trkpt>
      <trkpt lat="50.33602" lon="4.28299">
        <ele>150</ele>
        <time>2000-01-01T03:03:09.000Z</time>
      </trkpt>
      <trkpt lat="50.33619" lon="4.28127">
        <ele>154</ele>
        <time>2000-01-01T03:03:49.000Z</time>
      </trkpt>
      <trkpt lat="50.33584" lon="4.27956">
        <ele>167</ele>
        <time>2000-01-01T03:04:29.000Z</time>
      </trkpt>
      <trkpt lat="50.33444" lon="4.27988">
        <ele>174</ele>
        <time>2000-01-01T03:05:09.000Z</time>
      </trkpt>
      <trkpt lat="50.33289" lon="4.28014">
        <ele>174</ele>
        <time>2000-01-01T03:05:59.000Z</time>
      </trkpt>
      <trkpt lat="50.33225" lon="4.27964">
        <ele>174</ele>
        <time>2000-01-01T03:06:39.000Z</time>
      </trkpt>
      <trkpt lat="50.33123" lon="4.28003">
        <ele>170</ele>
        <time>2000-01-01T03:07:19.000Z</time>
      </trkpt>
      <trkpt lat="50.33027" lon="4.28145">
        <ele>165</ele>
        <time>2000-01-01T03:07:59.000Z</time>
      </trkpt>
      <trkpt lat="50.32945" lon="4.28345">
        <ele>162</ele>
        <time>2000-01-01T03:08:39.000Z</time>
      </trkpt>
      <trkpt lat="50.32942" lon="4.2845">
        <ele>169</ele>
        <time>2000-01-01T03:09:19.000Z</time>
      </trkpt>
      <trkpt lat="50.33024" lon="4.28562">
        <ele>154</ele>
        <time>2000-01-01T03:09:59.000Z</time>
      </trkpt>
      <trkpt lat="50.33147" lon="4.28589">
        <ele>138</ele>
        <time>2000-01-01T03:10:39.000Z</time>
      </trkpt>
      <trkpt lat="50.33249" lon="4.28567">
        <ele>148</ele>
        <time>2000-01-01T03:11:19.000Z</time>
      </trkpt>
      <trkpt lat="50.33335" lon="4.28673">
        <ele>146</ele>
        <time>2000-01-01T03:11:59.000Z</time>
      </trkpt>
      <trkpt lat="50.33404" lon="4.28743">
        <ele>139.8</ele>
        <time>2000-01-01T03:12:39.000Z</time>
      </trkpt>
      <trkpt lat="50.33578" lon="4.28696">
        <ele>121</ele>
        <time>2000-01-01T03:13:19.000Z</time>
      </trkpt>
      <trkpt lat="50.33699" lon="4.28578">
        <ele>127</ele>
        <time>2000-01-01T03:13:59.000Z</time>
      </trkpt>
      <trkpt lat="50.33698" lon="4.28432">
        <ele>125</ele>
        <time>2000-01-01T03:14:39.000Z</time>
      </trkpt>
      <trkpt lat="50.33743" lon="4.28326">
        <ele>121</ele>
        <time>2000-01-01T03:15:19.000Z</time>
      </trkpt>
      <trkpt lat="50.33852" lon="4.28289">
        <ele>113</ele>
        <time>2000-01-01T03:15:59.000Z</time>
      </trkpt>
      <trkpt lat="50.33835" lon="4.28385">
        <ele>112</ele>
        <time>2000-01-01T03:16:39.000Z</time>
      </trkpt>
      <trkpt lat="50.33777" lon="4.2859">
        <ele>116</ele>
        <time>2000-01-01T03:17:19.000Z</time>
      </trkpt>
    </trkseg>
  </trk>
</gpx>